This is the latest recevied weather packets stored in our database for station/object DC1MPP-9. If no packets are shown the sender has not sent any weather packets the latest 10 day(s).
| Time | Temp. | Humidity | Pressure | Rain* | Wind** | Luminosity | Snow |
|---|---|---|---|---|---|---|---|
| 1777876624 | 20° C | 48% | 958 hPa | - | - | - | - |
| 1777876383 | 19.44° C | 48% | 958 hPa | - | - | - | - |
| 1777876141 | 19.44° C | 49% | 958 hPa | - | - | - | - |
| 1777875900 | 19.44° C | 47% | 958 hPa | - | - | - | - |
| 1777875659 | 18.89° C | 54% | 958 hPa | - | - | - | - |
| 1777875418 | 18.89° C | 50% | 958 hPa | - | - | - | - |
| 1777875177 | 18.33° C | 57% | 958 hPa | - | - | - | - |
| 1777874936 | 18.33° C | 63% | 958 hPa | - | - | - | - |
| 1777874695 | 17.78° C | 67% | 958 hPa | - | - | - | - |
| 1777874454 | 17.22° C | 69% | 958 hPa | - | - | - | - |
| 1777874213 | 16.67° C | 70% | 958 hPa | - | - | - | - |
| 1777873972 | 16.67° C | 70% | 958 hPa | - | - | - | - |
| 1777873731 | 16.67° C | 73% | 958 hPa | - | - | - | - |
| 1777873490 | 16.67° C | 75% | 958 hPa | - | - | - | - |
| 1777873249 | 16.11° C | 83% | 958 hPa | - | - | - | - |
| 1777873008 | 15° C | 91% | 958 hPa | - | - | - | - |
| 1777872767 | 14.44° C | 90% | 958 hPa | - | - | - | - |
| 1777872526 | 14.44° C | 91% | 958 hPa | - | - | - | - |
| 1777872285 | 14.44° C | 93% | 958 hPa | - | - | - | - |
| 1777872044 | 13.89° C | 94% | 958 hPa | - | - | - | - |
| 1777871803 | 13.89° C | 94% | 958 hPa | - | - | - | - |
| 1777871562 | 13.89° C | 94% | 958 hPa | - | - | - | - |
| 1777871321 | 13.89° C | 93% | 958 hPa | - | - | - | - |
| 1777871079 | 13.89° C | 91% | 958 hPa | - | - | - | - |
| 1777870838 | 13.89° C | 90% | 958 hPa | - | - | - | - |
* Rain since midnight (hover to see other rain measurements)
** Current wind speed in m/s (hover to see current wind gust speed)